Terminal Aerodrome Forecast
Issued by NWS

Home | Current Version | Previous Version | Text Only | Print | Product List | Glossary On
Versions: 1 2 3 4 5 6 7 8 9 10 11 12 13 14 15 16
000
FTUS44 KEPZ 112000 AAA
TAFTCS
TAF AMD
KTCS 112032Z 1121/1218 10007KT P6SM SCT090
     FM112100 17008KT P6SM VCTS BKN080CB BKN250
      TEMPO 1121/1124 VRB20G35KT 3SM TSRA BKN050CB
     FM120200 28007KT P6SM SCT090 SCT250
     FM121200 VRB04KT P6SM BKN100=

USA.gov is the U.S. government's official web portal to all federal, state and local government web resources and services.